DAL54A KLAX-KSFO
Flight info
| Callsign | DAL54A |
|---|---|
| Flight time | 1h 0m |
| Altitude | 34000 |
| Route | SUMMR2 STOKD SERFR SERFR4 |
| Aircraft | A321/M-SDE3FGHIRWY/LB1 |
Departure
| Time | 2026-04-20 21:10 |
|---|---|
| Airport | Los Angeles International Airport (KLAX) |
Arrival
| Time | 2026-04-20 22:10 |
|---|---|
| Airport | San Francisco International Airport (KSFO) |
| Time | Latitude | Longitude | Altitude | Speed | Heading |
|---|---|---|---|---|---|
| 2026-04-20 20:40 | 33.94116 | -118.40018 | 93 ft | 0 kts | 95° |
| 2026-04-20 20:51 | 33.94118 | -118.40039 | 94 ft | 4 kts | 95° |
| 2026-04-20 20:51 | 33.94120 | -118.40064 | 93 ft | 4 kts | 108° |
| 2026-04-20 20:51 | 33.94133 | -118.40082 | 93 ft | 3 kts | 172° |
| 2026-04-20 20:51 | 33.94119 | -118.40080 | 92 ft | 4 kts | 173° |
| 2026-04-20 20:52 | 33.94092 | -118.40076 | 94 ft | 4 kts | 173° |
| 2026-04-20 20:52 | 33.94065 | -118.40072 | 93 ft | 4 kts | 173° |
| 2026-04-20 20:52 | 33.94047 | -118.40069 | 94 ft | 0 kts | 173° |
| 2026-04-20 21:00 | 33.94043 | -118.40068 | 95 ft | 4 kts | 173° |
| 2026-04-20 21:00 | 33.93975 | -118.40058 | 95 ft | 16 kts | 173° |
| 2026-04-20 21:00 | 33.93885 | -118.39960 | 98 ft | 24 kts | 87° |
| 2026-04-20 21:01 | 33.93906 | -118.39718 | 95 ft | 34 kts | 82° |
| 2026-04-20 21:01 | 33.93940 | -118.39402 | 97 ft | 39 kts | 83° |
| 2026-04-20 21:01 | 33.93973 | -118.39080 | 94 ft | 38 kts | 83° |
| 2026-04-20 21:01 | 33.94005 | -118.38767 | 94 ft | 37 kts | 83° |
| 2026-04-20 21:02 | 33.94035 | -118.38471 | 97 ft | 33 kts | 83° |
| 2026-04-20 21:02 | 33.94053 | -118.38302 | 97 ft | 13 kts | 82° |
| 2026-04-20 21:02 | 33.94062 | -118.38199 | 94 ft | 12 kts | 83° |
| 2026-04-20 21:02 | 33.94072 | -118.38106 | 93 ft | 4 kts | 83° |
| 2026-04-20 21:03 | 33.94076 | -118.38072 | 93 ft | 4 kts | 83° |
| 2026-04-20 21:03 | 33.94075 | -118.38037 | 93 ft | 4 kts | 97° |
| 2026-04-20 21:03 | 33.94072 | -118.38027 | 93 ft | 0 kts | 109° |
| 2026-04-20 21:03 | 33.94072 | -118.38026 | 93 ft | 0 kts | 109° |
| 2026-04-20 21:04 | 33.94072 | -118.38024 | 93 ft | 0 kts | 109° |
| 2026-04-20 21:04 | 33.94071 | -118.38024 | 93 ft | 0 kts | 110° |
| 2026-04-20 21:07 | 33.94067 | -118.38017 | 94 ft | 4 kts | 124° |
| 2026-04-20 21:07 | 33.94024 | -118.37999 | 94 ft | 10 kts | 176° |
| 2026-04-20 21:07 | 33.93979 | -118.38075 | 94 ft | 8 kts | 262° |
| 2026-04-20 21:07 | 33.93978 | -118.38078 | 94 ft | 0 kts | 262° |
| 2026-04-20 21:09 | 33.93978 | -118.38081 | 94 ft | 3 kts | 262° |
| 2026-04-20 21:09 | 33.93957 | -118.38272 | 98 ft | 55 kts | 264° |
| 2026-04-20 21:09 | 33.93885 | -118.38992 | 97 ft | 116 kts | 263° |
| 2026-04-20 21:10 | 33.93766 | -118.40150 | 102 ft | 160 kts | 263° |
| 2026-04-20 21:10 | 33.93611 | -118.41514 | 633 ft | 160 kts | 261° |
| 2026-04-20 21:10 | 33.93418 | -118.42796 | 1408 ft | 154 kts | 259° |
| 2026-04-20 21:10 | 33.93279 | -118.44097 | 2032 ft | 163 kts | 263° |
| 2026-04-20 21:11 | 33.93151 | -118.45540 | 2314 ft | 184 kts | 263° |
| 2026-04-20 21:11 | 33.93016 | -118.47161 | 2499 ft | 206 kts | 263° |
| 2026-04-20 21:11 | 33.92877 | -118.48980 | 2664 ft | 231 kts | 263° |
| 2026-04-20 21:11 | 33.92720 | -118.51017 | 2994 ft | 256 kts | 263° |
| 2026-04-20 21:12 | 33.92549 | -118.53196 | 3650 ft | 266 kts | 263° |
| 2026-04-20 21:12 | 33.92373 | -118.55434 | 4461 ft | 270 kts | 263° |
| 2026-04-20 21:12 | 33.92194 | -118.57658 | 5283 ft | 273 kts | 263° |
| 2026-04-20 21:12 | 33.92009 | -118.59944 | 6127 ft | 276 kts | 262° |
| 2026-04-20 21:13 | 33.91821 | -118.62250 | 6944 ft | 278 kts | 262° |
| 2026-04-20 21:13 | 33.91768 | -118.64598 | 7713 ft | 282 kts | 267° |
| 2026-04-20 21:13 | 33.91763 | -118.66971 | 8523 ft | 284 kts | 267° |
| 2026-04-20 21:13 | 33.91754 | -118.69360 | 9321 ft | 287 kts | 266° |
| 2026-04-20 21:14 | 33.91743 | -118.71770 | 10091 ft | 290 kts | 266° |
| 2026-04-20 21:14 | 33.91728 | -118.74272 | 10401 ft | 310 kts | 266° |
| 2026-04-20 21:14 | 33.91710 | -118.76773 | 10542 ft | 332 kts | 266° |
| 2026-04-20 21:14 | 33.91692 | -118.79623 | 10859 ft | 347 kts | 266° |
| 2026-04-20 21:15 | 33.91679 | -118.82549 | 11483 ft | 352 kts | 266° |
| 2026-04-20 21:15 | 33.91697 | -118.85510 | 12161 ft | 355 kts | 268° |
| 2026-04-20 21:15 | 33.91774 | -118.88492 | 12873 ft | 358 kts | 269° |
| 2026-04-20 21:15 | 33.91879 | -118.91456 | 13581 ft | 361 kts | 269° |
| 2026-04-20 21:16 | 33.91993 | -118.94522 | 14252 ft | 363 kts | 269° |
| 2026-04-20 21:16 | 33.92103 | -118.97570 | 14902 ft | 365 kts | 269° |
| 2026-04-20 21:16 | 33.92484 | -119.00737 | 15552 ft | 373 kts | 280° |
| 2026-04-20 21:16 | 33.93332 | -119.03591 | 16141 ft | 381 kts | 291° |
| 2026-04-20 21:17 | 33.94672 | -119.06383 | 16753 ft | 388 kts | 297° |
| 2026-04-20 21:17 | 33.96101 | -119.09132 | 17338 ft | 390 kts | 297° |
| 2026-04-20 21:17 | 33.97546 | -119.11926 | 17924 ft | 393 kts | 296° |
| 2026-04-20 21:17 | 33.98997 | -119.14737 | 18479 ft | 396 kts | 296° |
| 2026-04-20 21:18 | 34.00579 | -119.17485 | 18948 ft | 404 kts | 304° |
| 2026-04-20 21:18 | 34.02541 | -119.19895 | 19405 ft | 413 kts | 315° |
| 2026-04-20 21:18 | 34.04873 | -119.21977 | 19875 ft | 419 kts | 320° |
| 2026-04-20 21:18 | 34.07263 | -119.24013 | 20350 ft | 422 kts | 320° |
| 2026-04-20 21:19 | 34.09662 | -119.26070 | 20809 ft | 425 kts | 320° |
| 2026-04-20 21:19 | 34.12076 | -119.28147 | 21258 ft | 428 kts | 320° |
| 2026-04-20 21:19 | 34.14342 | -119.30101 | 21683 ft | 431 kts | 320° |
| 2026-04-20 21:20 | 34.19245 | -119.34339 | 22599 ft | 436 kts | 320° |
| 2026-04-20 21:20 | 34.21725 | -119.36475 | 23037 ft | 439 kts | 320° |
| 2026-04-20 21:20 | 34.24214 | -119.38621 | 23511 ft | 441 kts | 320° |
| 2026-04-20 21:20 | 34.26722 | -119.40785 | 23909 ft | 444 kts | 320° |
| 2026-04-20 21:21 | 34.29238 | -119.42956 | 24283 ft | 446 kts | 320° |
| 2026-04-20 21:21 | 34.31771 | -119.45147 | 24657 ft | 448 kts | 320° |
| 2026-04-20 21:21 | 34.34262 | -119.47305 | 25017 ft | 450 kts | 320° |
| 2026-04-20 21:21 | 34.36817 | -119.49524 | 25387 ft | 452 kts | 320° |
| 2026-04-20 21:22 | 34.39379 | -119.51750 | 25756 ft | 454 kts | 320° |
| 2026-04-20 21:22 | 34.41830 | -119.54144 | 26109 ft | 452 kts | 312° |
| 2026-04-20 21:22 | 34.44049 | -119.56844 | 26469 ft | 453 kts | 310° |
| 2026-04-20 21:22 | 34.46110 | -119.59384 | 26802 ft | 455 kts | 310° |
| 2026-04-20 21:23 | 34.48335 | -119.62124 | 27159 ft | 457 kts | 310° |
| 2026-04-20 21:23 | 34.50568 | -119.64876 | 27503 ft | 459 kts | 310° |
| 2026-04-20 21:23 | 34.52814 | -119.67640 | 27844 ft | 461 kts | 310° |
| 2026-04-20 21:23 | 34.55071 | -119.70416 | 28149 ft | 463 kts | 310° |
| 2026-04-20 21:24 | 34.57341 | -119.73211 | 28495 ft | 465 kts | 310° |
| 2026-04-20 21:24 | 34.59579 | -119.75972 | 28820 ft | 468 kts | 310° |
| 2026-04-20 21:24 | 34.61857 | -119.78792 | 29137 ft | 469 kts | 310° |
| 2026-04-20 21:24 | 34.64145 | -119.81628 | 29444 ft | 471 kts | 310° |
| 2026-04-20 21:25 | 34.66445 | -119.84476 | 29795 ft | 473 kts | 310° |
| 2026-04-20 21:25 | 34.68753 | -119.87332 | 30168 ft | 473 kts | 310° |
| 2026-04-20 21:25 | 34.71053 | -119.90177 | 30556 ft | 471 kts | 310° |
| 2026-04-20 21:25 | 34.73347 | -119.93017 | 30959 ft | 470 kts | 310° |
| 2026-04-20 21:26 | 34.75635 | -119.95851 | 31314 ft | 470 kts | 310° |
| 2026-04-20 21:26 | 34.77920 | -119.98688 | 31673 ft | 470 kts | 310° |
| 2026-04-20 21:26 | 34.80203 | -120.01528 | 32029 ft | 469 kts | 310° |
| 2026-04-20 21:26 | 34.82475 | -120.04361 | 32402 ft | 468 kts | 310° |
| 2026-04-20 21:27 | 34.84745 | -120.07194 | 32770 ft | 467 kts | 310° |
| 2026-04-20 21:27 | 34.87012 | -120.10018 | 33143 ft | 466 kts | 310° |
| 2026-04-20 21:27 | 34.89230 | -120.12784 | 33537 ft | 464 kts | 309° |
| 2026-04-20 21:27 | 34.91485 | -120.15599 | 33945 ft | 463 kts | 309° |
| 2026-04-20 21:28 | 34.93735 | -120.18414 | 34232 ft | 464 kts | 309° |
| 2026-04-20 21:28 | 34.95982 | -120.21231 | 34526 ft | 463 kts | 309° |
| 2026-04-20 21:28 | 34.98227 | -120.24045 | 34840 ft | 463 kts | 309° |
| 2026-04-20 21:28 | 35.00469 | -120.26855 | 35139 ft | 462 kts | 309° |
| 2026-04-20 21:29 | 35.02707 | -120.29663 | 35433 ft | 461 kts | 309° |
| 2026-04-20 21:29 | 35.04940 | -120.32468 | 35735 ft | 460 kts | 309° |
| 2026-04-20 21:29 | 35.07124 | -120.35217 | 35987 ft | 460 kts | 309° |
| 2026-04-20 21:30 | 35.11491 | -120.40545 | 36073 ft | 459 kts | 311° |
| 2026-04-20 21:30 | 35.16168 | -120.45737 | 36068 ft | 458 kts | 314° |
| 2026-04-20 21:31 | 35.20908 | -120.50877 | 36072 ft | 458 kts | 313° |
| 2026-04-20 21:31 | 35.25613 | -120.56101 | 36073 ft | 458 kts | 313° |
| 2026-04-20 21:32 | 35.30267 | -120.61359 | 36070 ft | 458 kts | 312° |
| 2026-04-20 21:32 | 35.34948 | -120.66667 | 36068 ft | 459 kts | 312° |
| 2026-04-20 21:33 | 35.39638 | -120.71966 | 36071 ft | 459 kts | 312° |
| 2026-04-20 21:33 | 35.44334 | -120.77266 | 36067 ft | 459 kts | 312° |
| 2026-04-20 21:34 | 35.49099 | -120.82512 | 36062 ft | 463 kts | 318° |
| 2026-04-20 21:34 | 35.54242 | -120.87284 | 36060 ft | 464 kts | 318° |
| 2026-04-20 21:35 | 35.59392 | -120.92060 | 36064 ft | 464 kts | 318° |
| 2026-04-20 21:35 | 35.64551 | -120.96849 | 36062 ft | 465 kts | 318° |
| 2026-04-20 21:36 | 35.69668 | -121.01611 | 36064 ft | 465 kts | 318° |
| 2026-04-20 21:36 | 35.74820 | -121.06417 | 36062 ft | 465 kts | 318° |
| 2026-04-20 21:37 | 35.79915 | -121.11174 | 36055 ft | 465 kts | 318° |
| 2026-04-20 21:37 | 35.85072 | -121.15999 | 36040 ft | 465 kts | 318° |
| 2026-04-20 21:38 | 35.90225 | -121.20835 | 36038 ft | 465 kts | 318° |
| 2026-04-20 21:38 | 35.95344 | -121.25649 | 35898 ft | 467 kts | 318° |
| 2026-04-20 21:38 | 35.97930 | -121.28086 | 35647 ft | 468 kts | 318° |
| 2026-04-20 21:39 | 36.00516 | -121.30519 | 35408 ft | 468 kts | 318° |
| 2026-04-20 21:39 | 36.03110 | -121.32956 | 35164 ft | 469 kts | 318° |
| 2026-04-20 21:39 | 36.05707 | -121.35396 | 34907 ft | 469 kts | 318° |
| 2026-04-20 21:39 | 36.08398 | -121.37702 | 34223 ft | 475 kts | 323° |
| 2026-04-20 21:40 | 36.11211 | -121.39907 | 33258 ft | 482 kts | 323° |
| 2026-04-20 21:40 | 36.14058 | -121.42127 | 32408 ft | 485 kts | 323° |
| 2026-04-20 21:40 | 36.16933 | -121.44363 | 31449 ft | 491 kts | 323° |
| 2026-04-20 21:40 | 36.19833 | -121.46617 | 30571 ft | 493 kts | 323° |
| 2026-04-20 21:41 | 36.22749 | -121.48884 | 29594 ft | 497 kts | 323° |
| 2026-04-20 21:41 | 36.25648 | -121.51142 | 29098 ft | 488 kts | 323° |
| 2026-04-20 21:41 | 36.28508 | -121.53377 | 28449 ft | 484 kts | 322° |
| 2026-04-20 21:41 | 36.31340 | -121.55596 | 27824 ft | 479 kts | 322° |
| 2026-04-20 21:42 | 36.34143 | -121.57795 | 27206 ft | 474 kts | 322° |
| 2026-04-20 21:42 | 36.36919 | -121.59973 | 26628 ft | 470 kts | 322° |
| 2026-04-20 21:42 | 36.39673 | -121.62133 | 26027 ft | 467 kts | 321° |
| 2026-04-20 21:42 | 36.42405 | -121.64281 | 25449 ft | 464 kts | 321° |
| 2026-04-20 21:43 | 36.45122 | -121.66427 | 24843 ft | 461 kts | 321° |
| 2026-04-20 21:43 | 36.47814 | -121.68555 | 24361 ft | 456 kts | 321° |
| 2026-04-20 21:43 | 36.50454 | -121.70627 | 24206 ft | 442 kts | 321° |
| 2026-04-20 21:43 | 36.53033 | -121.72647 | 23803 ft | 434 kts | 320° |
| 2026-04-20 21:44 | 36.55565 | -121.74637 | 23034 ft | 428 kts | 320° |
| 2026-04-20 21:44 | 36.58060 | -121.76610 | 22435 ft | 422 kts | 320° |
| 2026-04-20 21:44 | 36.60526 | -121.78570 | 21917 ft | 419 kts | 320° |
| 2026-04-20 21:44 | 36.62971 | -121.80516 | 21411 ft | 416 kts | 320° |
| 2026-04-20 21:45 | 36.65403 | -121.82446 | 20858 ft | 412 kts | 320° |
| 2026-04-20 21:45 | 36.67814 | -121.84363 | 20333 ft | 410 kts | 320° |
| 2026-04-20 21:45 | 36.70170 | -121.86240 | 19838 ft | 408 kts | 320° |
| 2026-04-20 21:45 | 36.72557 | -121.88141 | 19366 ft | 406 kts | 320° |
| 2026-04-20 21:46 | 36.74852 | -121.90136 | 18863 ft | 398 kts | 313° |
| 2026-04-20 21:46 | 36.76958 | -121.92353 | 18363 ft | 395 kts | 312° |
| 2026-04-20 21:46 | 36.79054 | -121.94563 | 17854 ft | 393 kts | 312° |
| 2026-04-20 21:46 | 36.81132 | -121.96746 | 17358 ft | 389 kts | 313° |
| 2026-04-20 21:47 | 36.83196 | -121.98913 | 16868 ft | 386 kts | 313° |
| 2026-04-20 21:47 | 36.85244 | -122.01064 | 16391 ft | 383 kts | 313° |
| 2026-04-20 21:47 | 36.87279 | -122.03201 | 15908 ft | 381 kts | 313° |
| 2026-04-20 21:47 | 36.89303 | -122.05331 | 15434 ft | 379 kts | 314° |
| 2026-04-20 21:48 | 36.91287 | -122.07421 | 14983 ft | 377 kts | 314° |
| 2026-04-20 21:48 | 36.93319 | -122.09560 | 14492 ft | 377 kts | 315° |
| 2026-04-20 21:48 | 36.95326 | -122.11675 | 14019 ft | 378 kts | 315° |
| 2026-04-20 21:48 | 36.96658 | -122.13081 | 13710 ft | 379 kts | 315° |
| 2026-04-20 21:49 | 36.99302 | -122.15873 | 13090 ft | 374 kts | 315° |
| 2026-04-20 21:49 | 37.00642 | -122.17290 | 12711 ft | 370 kts | 315° |
| 2026-04-20 21:49 | 37.03218 | -122.20010 | 12095 ft | 362 kts | 315° |
| 2026-04-20 21:49 | 37.05137 | -122.22036 | 11657 ft | 359 kts | 315° |
| 2026-04-20 21:50 | 37.06421 | -122.23394 | 11366 ft | 355 kts | 316° |
| 2026-04-20 21:50 | 37.08272 | -122.25352 | 11218 ft | 342 kts | 315° |
| 2026-04-20 21:50 | 37.10055 | -122.27239 | 11096 ft | 330 kts | 315° |
| 2026-04-20 21:50 | 37.11785 | -122.29074 | 10902 ft | 323 kts | 315° |
| 2026-04-20 21:51 | 37.13475 | -122.30888 | 10779 ft | 318 kts | 314° |
| 2026-04-20 21:51 | 37.15137 | -122.32712 | 10580 ft | 317 kts | 314° |
| 2026-04-20 21:51 | 37.16760 | -122.34508 | 10358 ft | 315 kts | 314° |
| 2026-04-20 21:51 | 37.18424 | -122.36351 | 10140 ft | 315 kts | 314° |
| 2026-04-20 21:52 | 37.20063 | -122.38166 | 9895 ft | 314 kts | 313° |
| 2026-04-20 21:52 | 37.21699 | -122.39975 | 9662 ft | 313 kts | 313° |
| 2026-04-20 21:52 | 37.23333 | -122.41778 | 9442 ft | 313 kts | 313° |
| 2026-04-20 21:52 | 37.24936 | -122.43567 | 9206 ft | 311 kts | 310° |
| 2026-04-20 21:53 | 37.26130 | -122.45718 | 8909 ft | 294 kts | 287° |
| 2026-04-20 21:53 | 37.26831 | -122.47922 | 8587 ft | 289 kts | 283° |
| 2026-04-20 21:53 | 37.27519 | -122.50278 | 8244 ft | 286 kts | 283° |
| 2026-04-20 21:53 | 37.28191 | -122.52608 | 8020 ft | 283 kts | 283° |
| 2026-04-20 21:54 | 37.28860 | -122.54924 | 8014 ft | 283 kts | 283° |
| 2026-04-20 21:54 | 37.29531 | -122.57248 | 8015 ft | 282 kts | 283° |
| 2026-04-20 21:54 | 37.30201 | -122.59567 | 8017 ft | 283 kts | 283° |
| 2026-04-20 21:54 | 37.30872 | -122.61890 | 8020 ft | 283 kts | 283° |
| 2026-04-20 21:55 | 37.31556 | -122.64207 | 8019 ft | 284 kts | 282° |
| 2026-04-20 21:55 | 37.32268 | -122.66531 | 8017 ft | 285 kts | 282° |
| 2026-04-20 21:55 | 37.32980 | -122.68838 | 7747 ft | 283 kts | 283° |
| 2026-04-20 21:55 | 37.33684 | -122.71137 | 7445 ft | 281 kts | 283° |
| 2026-04-20 21:56 | 37.34377 | -122.73427 | 7124 ft | 280 kts | 283° |
| 2026-04-20 21:56 | 37.35063 | -122.75707 | 6779 ft | 278 kts | 283° |
| 2026-04-20 21:56 | 37.35738 | -122.77977 | 6444 ft | 276 kts | 283° |
| 2026-04-20 21:56 | 37.36389 | -122.80207 | 6290 ft | 267 kts | 283° |
| 2026-04-20 21:57 | 37.37119 | -122.82323 | 6147 ft | 266 kts | 297° |
| 2026-04-20 21:57 | 37.38472 | -122.83895 | 6018 ft | 268 kts | 328° |
| 2026-04-20 21:57 | 37.40250 | -122.84521 | 6006 ft | 265 kts | 349° |
| 2026-04-20 21:57 | 37.42084 | -122.84749 | 6008 ft | 265 kts | 353° |
| 2026-04-20 21:58 | 37.43894 | -122.84934 | 6005 ft | 264 kts | 353° |
| 2026-04-20 21:58 | 37.45726 | -122.85108 | 6006 ft | 264 kts | 353° |
| 2026-04-20 21:58 | 37.47550 | -122.85280 | 6003 ft | 264 kts | 353° |
| 2026-04-20 21:58 | 37.49393 | -122.85453 | 6003 ft | 265 kts | 353° |
| 2026-04-20 21:59 | 37.51226 | -122.85623 | 6006 ft | 263 kts | 353° |
| 2026-04-20 21:59 | 37.53017 | -122.85787 | 6002 ft | 264 kts | 353° |
| 2026-04-20 21:59 | 37.54848 | -122.85955 | 6003 ft | 265 kts | 353° |
| 2026-04-20 21:59 | 37.56706 | -122.86140 | 6003 ft | 270 kts | 352° |
| 2026-04-20 22:00 | 37.58576 | -122.86318 | 6002 ft | 271 kts | 353° |
| 2026-04-20 22:00 | 37.60466 | -122.86496 | 6005 ft | 271 kts | 353° |
| 2026-04-20 22:00 | 37.62331 | -122.86667 | 5970 ft | 265 kts | 353° |
| 2026-04-20 22:00 | 37.64154 | -122.86837 | 5803 ft | 260 kts | 353° |
| 2026-04-20 22:01 | 37.65925 | -122.87005 | 5576 ft | 258 kts | 353° |
| 2026-04-20 22:01 | 37.67695 | -122.86771 | 5347 ft | 257 kts | 17° |
| 2026-04-20 22:01 | 37.69374 | -122.85984 | 5042 ft | 258 kts | 22° |
| 2026-04-20 22:01 | 37.71025 | -122.85112 | 4810 ft | 256 kts | 23° |
| 2026-04-20 22:02 | 37.72656 | -122.84237 | 4582 ft | 254 kts | 25° |
| 2026-04-20 22:02 | 37.74038 | -122.82925 | 4299 ft | 248 kts | 58° |
| 2026-04-20 22:02 | 37.74672 | -122.80995 | 4067 ft | 232 kts | 92° |
| 2026-04-20 22:02 | 37.74668 | -122.78966 | 4000 ft | 231 kts | 101° |
| 2026-04-20 22:03 | 37.74546 | -122.76997 | 3998 ft | 218 kts | 104° |
| 2026-04-20 22:03 | 37.74395 | -122.75155 | 4010 ft | 203 kts | 105° |
| 2026-04-20 22:03 | 37.74230 | -122.73412 | 4013 ft | 198 kts | 105° |
| 2026-04-20 22:03 | 37.74057 | -122.71684 | 4008 ft | 199 kts | 106° |
| 2026-04-20 22:04 | 37.73878 | -122.69945 | 4010 ft | 200 kts | 104° |
| 2026-04-20 22:04 | 37.73704 | -122.68212 | 4013 ft | 198 kts | 106° |
| 2026-04-20 22:04 | 37.73534 | -122.66494 | 4011 ft | 197 kts | 106° |
| 2026-04-20 22:04 | 37.73365 | -122.64785 | 4011 ft | 196 kts | 106° |
| 2026-04-20 22:05 | 37.73195 | -122.63072 | 4010 ft | 197 kts | 106° |
| 2026-04-20 22:05 | 37.72986 | -122.61355 | 3979 ft | 197 kts | 114° |
| 2026-04-20 22:05 | 37.72491 | -122.59763 | 3667 ft | 192 kts | 129° |
| 2026-04-20 22:05 | 37.71813 | -122.58335 | 3417 ft | 189 kts | 131° |
| 2026-04-20 22:06 | 37.71157 | -122.56951 | 3157 ft | 185 kts | 131° |
| 2026-04-20 22:06 | 37.70503 | -122.55569 | 2904 ft | 183 kts | 132° |
| 2026-04-20 22:06 | 37.69850 | -122.54191 | 2672 ft | 182 kts | 132° |
| 2026-04-20 22:06 | 37.69206 | -122.52826 | 2457 ft | 180 kts | 132° |
| 2026-04-20 22:07 | 37.68584 | -122.51507 | 2238 ft | 178 kts | 132° |
| 2026-04-20 22:07 | 37.67956 | -122.50178 | 1982 ft | 175 kts | 131° |
| 2026-04-20 22:07 | 37.67349 | -122.48884 | 1754 ft | 162 kts | 131° |
| 2026-04-20 22:07 | 37.66837 | -122.47765 | 1538 ft | 140 kts | 133° |
| 2026-04-20 22:08 | 37.66354 | -122.46733 | 1369 ft | 132 kts | 133° |
| 2026-04-20 22:08 | 37.65896 | -122.45768 | 1186 ft | 128 kts | 131° |
| 2026-04-20 22:08 | 37.65422 | -122.44781 | 1023 ft | 134 kts | 135° |
| 2026-04-20 22:08 | 37.64946 | -122.43783 | 842 ft | 131 kts | 128° |
| 2026-04-20 22:09 | 37.64476 | -122.42797 | 671 ft | 132 kts | 127° |
| 2026-04-20 22:09 | 37.64003 | -122.41808 | 491 ft | 132 kts | 124° |
| 2026-04-20 22:09 | 37.63520 | -122.40798 | 319 ft | 138 kts | 127° |
| 2026-04-20 22:09 | 37.63042 | -122.39729 | 140 ft | 141 kts | 123° |
| 2026-04-20 22:10 | 37.62598 | -122.38654 | 28 ft | 130 kts | 124° |
| 2026-04-20 22:10 | 37.62291 | -122.37961 | 23 ft | 53 kts | 118° |
| 2026-04-20 22:10 | 37.62138 | -122.37595 | 22 ft | 44 kts | 117° |
| 2026-04-20 22:10 | 37.62005 | -122.37282 | 24 ft | 39 kts | 118° |
| 2026-04-20 22:11 | 37.61907 | -122.37075 | 22 ft | 10 kts | 160° |
| 2026-04-20 22:11 | 37.61851 | -122.37104 | 22 ft | 8 kts | 205° |
| 2026-04-20 22:11 | 37.61809 | -122.37132 | 22 ft | 2 kts | 209° |
| 2026-04-20 22:12 | 37.61785 | -122.37149 | 23 ft | 9 kts | 208° |
| 2026-04-20 22:12 | 37.61693 | -122.37209 | 22 ft | 19 kts | 207° |
| 2026-04-20 22:12 | 37.61632 | -122.37258 | 24 ft | 7 kts | 232° |
| 2026-04-20 22:12 | 37.61632 | -122.37301 | 22 ft | 2 kts | 291° |
| 2026-04-20 22:13 | 37.61640 | -122.37323 | 24 ft | 10 kts | 295° |
| 2026-04-20 22:13 | 37.61683 | -122.37428 | 22 ft | 13 kts | 298° |
| 2026-04-20 22:13 | 37.61719 | -122.37513 | 22 ft | 9 kts | 295° |
| 2026-04-20 22:14 | 37.61739 | -122.37575 | 22 ft | 8 kts | 290° |
| 2026-04-20 22:14 | 37.61764 | -122.37658 | 23 ft | 12 kts | 290° |
| 2026-04-20 22:14 | 37.61790 | -122.37740 | 22 ft | 9 kts | 294° |
| 2026-04-20 22:14 | 37.61802 | -122.37783 | 22 ft | 1 kts | 290° |
| 2026-04-20 22:15 | 37.61805 | -122.37792 | 24 ft | 0 kts | 290° |
| 2026-04-20 22:15 | 37.61808 | -122.37803 | 23 ft | 5 kts | 292° |
| 2026-04-20 22:15 | 37.61823 | -122.37848 | 22 ft | 4 kts | 293° |
| 2026-04-20 22:15 | 37.61837 | -122.37889 | 23 ft | 10 kts | 294° |
| 2026-04-20 22:16 | 37.61883 | -122.38007 | 22 ft | 22 kts | 297° |
| 2026-04-20 22:16 | 37.61967 | -122.38207 | 22 ft | 26 kts | 299° |
| 2026-04-20 22:16 | 37.62046 | -122.38392 | 22 ft | 22 kts | 297° |
| 2026-04-20 22:16 | 37.62109 | -122.38549 | 22 ft | 18 kts | 297° |
| 2026-04-20 22:17 | 37.62164 | -122.38674 | 22 ft | 14 kts | 298° |
| 2026-04-20 22:17 | 37.62205 | -122.38769 | 23 ft | 10 kts | 298° |
| 2026-04-20 22:17 | 37.62236 | -122.38848 | 22 ft | 10 kts | 296° |
| 2026-04-20 22:17 | 37.62264 | -122.38925 | 22 ft | 9 kts | 279° |
| 2026-04-20 22:18 | 37.62251 | -122.39007 | 22 ft | 10 kts | 253° |
| 2026-04-20 22:18 | 37.62227 | -122.39093 | 22 ft | 11 kts | 241° |
| 2026-04-20 22:18 | 37.62164 | -122.39149 | 24 ft | 12 kts | 207° |
| 2026-04-20 22:18 | 37.62091 | -122.39198 | 24 ft | 11 kts | 209° |
| 2026-04-20 22:19 | 37.62040 | -122.39185 | 22 ft | 1 kts | 86° |
| 2026-04-20 22:19 | 37.62042 | -122.39177 | 22 ft | 1 kts | 75° |
| 2026-04-20 22:19 | 37.62047 | -122.39159 | 22 ft | 3 kts | 68° |
| 2026-04-20 22:19 | 37.62054 | -122.39136 | 22 ft | 2 kts | 71° |
| 2026-04-20 22:20 | 37.62064 | -122.39099 | 22 ft | 3 kts | 73° |
| 2026-04-20 22:20 | 37.62066 | -122.39088 | 22 ft | 0 kts | 73° |
| 2026-04-20 22:20 | 37.62068 | -122.39083 | 22 ft | 0 kts | 72° |
| 2026-04-20 22:21 | 37.62072 | -122.39066 | 23 ft | 1 kts | 72° |
| 2026-04-20 22:21 | 37.62072 | -122.39064 | 24 ft | 0 kts | 73° |
| 2026-04-20 22:27 | 37.62073 | -122.39064 | 22 ft | 0 kts | 73° |